sensor_id;sensor_type;location;lat;lon;timestamp;P1;durP1;ratioP1;P2;durP2;ratioP2
67092;SDS011;54011;50.772;7.730;2023-08-24T00:01:41;6.10;;;3.40;;
67092;SDS011;54011;50.772;7.730;2023-08-24T00:04:06;7.50;;;3.67;;
67092;SDS011;54011;50.772;7.730;2023-08-24T00:06:33;7.13;;;3.78;;
67092;SDS011;54011;50.772;7.730;2023-08-24T00:08:58;9.57;;;3.83;;
67092;SDS011;54011;50.772;7.730;2023-08-24T00:11:24;10.95;;;3.72;;
67092;SDS011;54011;50.772;7.730;2023-08-24T00:13:50;7.57;;;3.50;;
67092;SDS011;54011;50.772;7.730;2023-08-24T00:16:16;9.20;;;3.60;;
67092;SDS011;54011;50.772;7.730;2023-08-24T00:18:42;13.00;;;3.80;;
67092;SDS011;54011;50.772;7.730;2023-08-24T00:21:08;8.02;;;3.60;;
67092;SDS011;54011;50.772;7.730;2023-08-24T00:23:33;8.68;;;3.50;;
67092;SDS011;54011;50.772;7.730;2023-08-24T00:25:59;9.00;;;3.67;;
67092;SDS011;54011;50.772;7.730;2023-08-24T00:28:25;8.75;;;4.00;;
67092;SDS011;54011;50.772;7.730;2023-08-24T00:30:52;10.95;;;3.70;;
67092;SDS011;54011;50.772;7.730;2023-08-24T00:33:19;7.32;;;3.38;;
67092;SDS011;54011;50.772;7.730;2023-08-24T00:35:45;8.55;;;3.30;;
67092;SDS011;54011;50.772;7.730;2023-08-24T00:38:11;9.35;;;3.83;;
67092;SDS011;54011;50.772;7.730;2023-08-24T00:40:38;9.60;;;3.80;;
67092;SDS011;54011;50.772;7.730;2023-08-24T00:43:07;6.43;;;3.40;;
67092;SDS011;54011;50.772;7.730;2023-08-24T00:45:32;7.47;;;3.70;;
67092;SDS011;54011;50.772;7.730;2023-08-24T00:47:58;8.00;;;3.67;;
67092;SDS011;54011;50.772;7.730;2023-08-24T00:50:24;8.18;;;3.58;;
67092;SDS011;54011;50.772;7.730;2023-08-24T00:52:50;8.68;;;3.70;;
67092;SDS011;54011;50.772;7.730;2023-08-24T00:55:18;8.73;;;3.75;;
67092;SDS011;54011;50.772;7.730;2023-08-24T00:57:46;6.07;;;3.67;;
67092;SDS011;54011;50.772;7.730;2023-08-24T01:00:13;9.75;;;4.32;;
67092;SDS011;54011;50.772;7.730;2023-08-24T01:02:39;10.70;;;3.78;;
67092;SDS011;54011;50.772;7.730;2023-08-24T01:05:05;9.13;;;3.55;;
67092;SDS011;54011;50.772;7.730;2023-08-24T01:07:32;7.90;;;3.88;;
67092;SDS011;54011;50.772;7.730;2023-08-24T01:10:00;13.27;;;3.80;;
67092;SDS011;54011;50.772;7.730;2023-08-24T01:12:31;7.13;;;3.78;;
67092;SDS011;54011;50.772;7.730;2023-08-24T01:15:14;11.18;;;3.90;;
67092;SDS011;54011;50.772;7.730;2023-08-24T01:17:55;9.05;;;3.78;;
67092;SDS011;54011;50.772;7.730;2023-08-24T01:20:29;5.95;;;3.72;;
67092;SDS011;54011;50.772;7.730;2023-08-24T01:22:56;7.63;;;4.00;;
67092;SDS011;54011;50.772;7.730;2023-08-24T01:25:34;10.55;;;3.88;;
67092;SDS011;54011;50.772;7.730;2023-08-24T01:28:06;9.55;;;4.40;;
67092;SDS011;54011;50.772;7.730;2023-08-24T01:30:33;7.55;;;3.70;;
67092;SDS011;54011;50.772;7.730;2023-08-24T01:33:02;9.77;;;4.10;;
67092;SDS011;54011;50.772;7.730;2023-08-24T01:35:30;9.23;;;4.18;;
67092;SDS011;54011;50.772;7.730;2023-08-24T01:37:56;6.90;;;4.10;;
67092;SDS011;54011;50.772;7.730;2023-08-24T01:40:36;9.65;;;3.85;;
67092;SDS011;54011;50.772;7.730;2023-08-24T01:43:30;11.07;;;3.97;;
67092;SDS011;54011;50.772;7.730;2023-08-24T01:45:59;9.52;;;3.80;;
67092;SDS011;54011;50.772;7.730;2023-08-24T01:48:25;8.57;;;3.65;;
67092;SDS011;54011;50.772;7.730;2023-08-24T01:50:51;7.28;;;3.67;;
67092;SDS011;54011;50.772;7.730;2023-08-24T01:53:19;10.60;;;3.97;;
67092;SDS011;54011;50.772;7.730;2023-08-24T01:55:45;8.82;;;3.90;;
67092;SDS011;54011;50.772;7.730;2023-08-24T01:58:13;7.43;;;3.92;;
67092;SDS011;54011;50.772;7.730;2023-08-24T02:00:38;9.65;;;3.95;;
67092;SDS011;54011;50.772;7.730;2023-08-24T02:03:04;12.20;;;4.18;;
67092;SDS011;54011;50.772;7.730;2023-08-24T02:05:30;7.57;;;3.53;;
67092;SDS011;54011;50.772;7.730;2023-08-24T02:07:55;11.43;;;3.80;;
67092;SDS011;54011;50.772;7.730;2023-08-24T02:10:23;8.77;;;4.03;;
67092;SDS011;54011;50.772;7.730;2023-08-24T02:12:48;9.07;;;4.15;;
67092;SDS011;54011;50.772;7.730;2023-08-24T02:15:14;7.07;;;4.00;;
67092;SDS011;54011;50.772;7.730;2023-08-24T02:17:39;9.05;;;4.10;;
67092;SDS011;54011;50.772;7.730;2023-08-24T02:20:05;7.50;;;4.00;;
67092;SDS011;54011;50.772;7.730;2023-08-24T02:22:34;9.38;;;4.30;;
67092;SDS011;54011;50.772;7.730;2023-08-24T02:25:00;8.82;;;3.55;;
67092;SDS011;54011;50.772;7.730;2023-08-24T02:27:28;8.18;;;4.00;;
67092;SDS011;54011;50.772;7.730;2023-08-24T02:29:53;15.85;;;4.30;;
67092;SDS011;54011;50.772;7.730;2023-08-24T02:32:20;8.38;;;4.22;;
67092;SDS011;54011;50.772;7.730;2023-08-24T02:34:46;11.20;;;3.97;;
67092;SDS011;54011;50.772;7.730;2023-08-24T02:37:12;6.78;;;4.35;;
67092;SDS011;54011;50.772;7.730;2023-08-24T02:39:39;12.25;;;4.20;;
67092;SDS011;54011;50.772;7.730;2023-08-24T02:42:06;12.75;;;4.30;;
67092;SDS011;54011;50.772;7.730;2023-08-24T02:44:34;7.28;;;4.68;;
67092;SDS011;54011;50.772;7.730;2023-08-24T02:46:59;7.88;;;4.50;;
67092;SDS011;54011;50.772;7.730;2023-08-24T02:49:25;9.55;;;4.40;;
67092;SDS011;54011;50.772;7.730;2023-08-24T02:51:51;13.57;;;4.85;;
67092;SDS011;54011;50.772;7.730;2023-08-24T02:54:16;9.35;;;4.68;;
67092;SDS011;54011;50.772;7.730;2023-08-24T02:56:42;10.45;;;4.80;;
67092;SDS011;54011;50.772;7.730;2023-08-24T02:59:09;9.45;;;4.30;;
67092;SDS011;54011;50.772;7.730;2023-08-24T03:01:34;9.18;;;3.53;;
67092;SDS011;54011;50.772;7.730;2023-08-24T03:06:32;7.18;;;4.13;;
67092;SDS011;54011;50.772;7.730;2023-08-24T03:08:59;8.73;;;3.78;;
67092;SDS011;54011;50.772;7.730;2023-08-24T03:11:27;6.43;;;3.40;;
67092;SDS011;54011;50.772;7.730;2023-08-24T03:13:53;8.63;;;3.47;;
67092;SDS011;54011;50.772;7.730;2023-08-24T03:16:19;6.65;;;3.28;;
67092;SDS011;54011;50.772;7.730;2023-08-24T03:18:45;8.73;;;3.47;;
67092;SDS011;54011;50.772;7.730;2023-08-24T03:21:16;10.88;;;3.60;;
67092;SDS011;54011;50.772;7.730;2023-08-24T03:23:43;7.35;;;2.95;;
67092;SDS011;54011;50.772;7.730;2023-08-24T03:26:09;9.25;;;3.53;;
67092;SDS011;54011;50.772;7.730;2023-08-24T03:28:34;7.07;;;3.22;;
67092;SDS011;54011;50.772;7.730;2023-08-24T03:31:00;7.70;;;3.53;;
67092;SDS011;54011;50.772;7.730;2023-08-24T03:33:26;6.75;;;3.35;;
67092;SDS011;54011;50.772;7.730;2023-08-24T03:35:53;7.75;;;3.65;;
67092;SDS011;54011;50.772;7.730;2023-08-24T03:38:19;8.48;;;3.40;;
67092;SDS011;54011;50.772;7.730;2023-08-24T03:40:45;8.45;;;3.60;;
67092;SDS011;54011;50.772;7.730;2023-08-24T03:43:13;11.95;;;4.40;;
67092;SDS011;54011;50.772;7.730;2023-08-24T03:45:38;9.48;;;5.00;;
67092;SDS011;54011;50.772;7.730;2023-08-24T03:48:05;9.52;;;4.50;;
67092;SDS011;54011;50.772;7.730;2023-08-24T03:50:32;9.63;;;5.50;;
67092;SDS011;54011;50.772;7.730;2023-08-24T03:52:58;10.45;;;4.90;;
67092;SDS011;54011;50.772;7.730;2023-08-24T03:55:24;13.57;;;6.38;;
67092;SDS011;54011;50.772;7.730;2023-08-24T03:57:49;9.35;;;5.30;;
67092;SDS011;54011;50.772;7.730;2023-08-24T04:00:16;9.50;;;5.00;;
67092;SDS011;54011;50.772;7.730;2023-08-24T04:02:42;12.32;;;4.72;;
67092;SDS011;54011;50.772;7.730;2023-08-24T04:05:10;12.02;;;5.32;;
67092;SDS011;54011;50.772;7.730;2023-08-24T04:07:37;8.30;;;5.18;;
67092;SDS011;54011;50.772;7.730;2023-08-24T04:10:05;10.43;;;5.07;;
67092;SDS011;54011;50.772;7.730;2023-08-24T04:12:32;9.32;;;4.70;;
67092;SDS011;54011;50.772;7.730;2023-08-24T04:14:58;6.95;;;3.60;;
67092;SDS011;54011;50.772;7.730;2023-08-24T04:17:24;6.00;;;3.58;;
67092;SDS011;54011;50.772;7.730;2023-08-24T04:19:50;10.48;;;3.88;;
67092;SDS011;54011;50.772;7.730;2023-08-24T04:22:18;11.20;;;3.70;;
67092;SDS011;54011;50.772;7.730;2023-08-24T04:24:44;10.93;;;3.70;;
67092;SDS011;54011;50.772;7.730;2023-08-24T04:27:10;12.65;;;3.95;;
67092;SDS011;54011;50.772;7.730;2023-08-24T04:29:36;13.40;;;4.05;;
67092;SDS011;54011;50.772;7.730;2023-08-24T04:32:03;10.77;;;4.25;;
67092;SDS011;54011;50.772;7.730;2023-08-24T04:34:28;9.55;;;4.35;;
67092;SDS011;54011;50.772;7.730;2023-08-24T04:36:55;9.18;;;4.40;;
67092;SDS011;54011;50.772;7.730;2023-08-24T04:39:24;9.35;;;4.43;;
67092;SDS011;54011;50.772;7.730;2023-08-24T04:41:50;7.20;;;4.18;;
67092;SDS011;54011;50.772;7.730;2023-08-24T04:44:17;7.72;;;4.15;;
67092;SDS011;54011;50.772;7.730;2023-08-24T04:46:42;7.15;;;4.45;;
67092;SDS011;54011;50.772;7.730;2023-08-24T04:49:09;9.63;;;4.30;;
67092;SDS011;54011;50.772;7.730;2023-08-24T04:51:35;17.83;;;4.53;;
67092;SDS011;54011;50.772;7.730;2023-08-24T04:54:02;10.77;;;4.25;;
67092;SDS011;54011;50.772;7.730;2023-08-24T04:56:30;11.07;;;4.20;;
67092;SDS011;54011;50.772;7.730;2023-08-24T04:58:55;10.77;;;4.38;;
67092;SDS011;54011;50.772;7.730;2023-08-24T05:01:22;8.82;;;4.60;;
67092;SDS011;54011;50.772;7.730;2023-08-24T05:03:50;13.52;;;4.38;;
67092;SDS011;54011;50.772;7.730;2023-08-24T05:06:17;10.60;;;4.95;;
67092;SDS011;54011;50.772;7.730;2023-08-24T05:08:43;17.77;;;4.90;;
67092;SDS011;54011;50.772;7.730;2023-08-24T05:11:18;16.88;;;4.75;;
67092;SDS011;54011;50.772;7.730;2023-08-24T05:13:49;9.85;;;4.38;;
67092;SDS011;54011;50.772;7.730;2023-08-24T05:16:16;7.00;;;4.45;;
67092;SDS011;54011;50.772;7.730;2023-08-24T05:18:43;10.75;;;4.38;;
67092;SDS011;54011;50.772;7.730;2023-08-24T05:21:08;8.45;;;3.92;;
67092;SDS011;54011;50.772;7.730;2023-08-24T05:23:34;8.23;;;4.57;;
67092;SDS011;54011;50.772;7.730;2023-08-24T05:26:01;8.25;;;4.38;;
67092;SDS011;54011;50.772;7.730;2023-08-24T05:28:28;11.07;;;4.53;;
67092;SDS011;54011;50.772;7.730;2023-08-24T05:30:55;12.38;;;5.25;;
67092;SDS011;54011;50.772;7.730;2023-08-24T05:33:27;10.13;;;4.82;;
67092;SDS011;54011;50.772;7.730;2023-08-24T05:35:57;8.68;;;4.15;;
67092;SDS011;54011;50.772;7.730;2023-08-24T05:38:24;11.18;;;4.40;;
67092;SDS011;54011;50.772;7.730;2023-08-24T05:40:50;9.65;;;4.88;;
67092;SDS011;54011;50.772;7.730;2023-08-24T05:43:19;12.05;;;4.72;;
67092;SDS011;54011;50.772;7.730;2023-08-24T05:45:45;8.95;;;4.43;;
67092;SDS011;54011;50.772;7.730;2023-08-24T05:48:12;12.65;;;4.65;;
67092;SDS011;54011;50.772;7.730;2023-08-24T05:50:40;8.73;;;5.05;;
67092;SDS011;54011;50.772;7.730;2023-08-24T05:56:01;9.70;;;4.32;;
67092;SDS011;54011;50.772;7.730;2023-08-24T05:58:26;9.00;;;4.28;;
67092;SDS011;54011;50.772;7.730;2023-08-24T06:00:56;8.90;;;4.53;;
67092;SDS011;54011;50.772;7.730;2023-08-24T06:03:23;8.15;;;4.25;;
67092;SDS011;54011;50.772;7.730;2023-08-24T06:05:49;6.85;;;4.65;;
67092;SDS011;54011;50.772;7.730;2023-08-24T06:08:15;8.07;;;5.03;;
67092;SDS011;54011;50.772;7.730;2023-08-24T06:10:41;10.15;;;5.07;;
67092;SDS011;54011;50.772;7.730;2023-08-24T06:13:06;13.55;;;6.82;;
67092;SDS011;54011;50.772;7.730;2023-08-24T06:15:32;13.75;;;8.18;;
67092;SDS011;54011;50.772;7.730;2023-08-24T06:17:58;11.45;;;5.63;;
67092;SDS011;54011;50.772;7.730;2023-08-24T06:20:25;12.32;;;5.80;;
67092;SDS011;54011;50.772;7.730;2023-08-24T06:22:50;8.07;;;4.97;;
67092;SDS011;54011;50.772;7.730;2023-08-24T06:25:16;12.02;;;5.70;;
67092;SDS011;54011;50.772;7.730;2023-08-24T06:27:42;10.05;;;4.90;;
67092;SDS011;54011;50.772;7.730;2023-08-24T06:30:09;14.52;;;5.28;;
67092;SDS011;54011;50.772;7.730;2023-08-24T06:32:36;11.07;;;5.68;;
67092;SDS011;54011;50.772;7.730;2023-08-24T06:35:02;14.20;;;5.28;;
67092;SDS011;54011;50.772;7.730;2023-08-24T06:37:30;12.55;;;5.80;;
67092;SDS011;54011;50.772;7.730;2023-08-24T06:39:56;9.25;;;5.20;;
67092;SDS011;54011;50.772;7.730;2023-08-24T06:42:21;9.73;;;5.18;;
67092;SDS011;54011;50.772;7.730;2023-08-24T06:44:47;9.23;;;5.65;;
67092;SDS011;54011;50.772;7.730;2023-08-24T06:47:15;10.57;;;5.13;;
67092;SDS011;54011;50.772;7.730;2023-08-24T06:49:41;10.00;;;4.95;;
67092;SDS011;54011;50.772;7.730;2023-08-24T06:52:06;9.23;;;5.03;;
67092;SDS011;54011;50.772;7.730;2023-08-24T06:54:33;9.85;;;4.57;;
67092;SDS011;54011;50.772;7.730;2023-08-24T06:56:59;10.10;;;4.85;;
67092;SDS011;54011;50.772;7.730;2023-08-24T06:59:25;9.77;;;5.22;;
67092;SDS011;54011;50.772;7.730;2023-08-24T07:01:51;8.93;;;4.68;;
67092;SDS011;54011;50.772;7.730;2023-08-24T07:04:17;8.68;;;4.47;;
67092;SDS011;54011;50.772;7.730;2023-08-24T07:06:46;13.32;;;4.47;;
67092;SDS011;54011;50.772;7.730;2023-08-24T07:09:13;7.03;;;4.35;;
67092;SDS011;54011;50.772;7.730;2023-08-24T07:11:41;8.77;;;4.15;;
67092;SDS011;54011;50.772;7.730;2023-08-24T07:14:06;9.55;;;4.68;;
67092;SDS011;54011;50.772;7.730;2023-08-24T07:16:32;9.05;;;4.53;;
67092;SDS011;54011;50.772;7.730;2023-08-24T07:18:58;10.38;;;4.78;;
67092;SDS011;54011;50.772;7.730;2023-08-24T07:21:24;9.95;;;4.38;;
67092;SDS011;54011;50.772;7.730;2023-08-24T07:23:51;11.02;;;4.47;;
67092;SDS011;54011;50.772;7.730;2023-08-24T07:26:16;9.25;;;4.90;;
67092;SDS011;54011;50.772;7.730;2023-08-24T07:28:42;7.65;;;4.20;;
67092;SDS011;54011;50.772;7.730;2023-08-24T07:31:10;9.63;;;3.90;;
67092;SDS011;54011;50.772;7.730;2023-08-24T07:33:37;9.40;;;4.00;;
67092;SDS011;54011;50.772;7.730;2023-08-24T07:36:06;11.70;;;4.03;;
67092;SDS011;54011;50.772;7.730;2023-08-24T07:38:33;7.25;;;3.92;;
67092;SDS011;54011;50.772;7.730;2023-08-24T07:41:02;11.80;;;4.03;;
67092;SDS011;54011;50.772;7.730;2023-08-24T07:43:28;9.00;;;3.75;;
67092;SDS011;54011;50.772;7.730;2023-08-24T07:45:54;6.72;;;3.60;;
67092;SDS011;54011;50.772;7.730;2023-08-24T07:48:20;11.82;;;3.78;;
67092;SDS011;54011;50.772;7.730;2023-08-24T07:50:46;11.95;;;3.80;;
67092;SDS011;54011;50.772;7.730;2023-08-24T07:53:11;8.35;;;3.88;;
67092;SDS011;54011;50.772;7.730;2023-08-24T07:55:37;8.98;;;3.28;;
67092;SDS011;54011;50.772;7.730;2023-08-24T07:58:03;9.27;;;3.25;;
67092;SDS011;54011;50.772;7.730;2023-08-24T08:00:29;8.18;;;3.35;;
67092;SDS011;54011;50.772;7.730;2023-08-24T08:02:55;5.93;;;3.22;;
67092;SDS011;54011;50.772;7.730;2023-08-24T08:05:20;7.75;;;3.58;;
67092;SDS011;54011;50.772;7.730;2023-08-24T08:07:48;9.68;;;3.58;;
67092;SDS011;54011;50.772;7.730;2023-08-24T08:10:14;7.22;;;3.38;;
67092;SDS011;54011;50.772;7.730;2023-08-24T08:12:42;10.50;;;3.50;;
67092;SDS011;54011;50.772;7.730;2023-08-24T08:15:08;8.88;;;3.47;;
67092;SDS011;54011;50.772;7.730;2023-08-24T08:17:34;7.93;;;3.03;;
67092;SDS011;54011;50.772;7.730;2023-08-24T08:20:04;6.78;;;3.10;;
67092;SDS011;54011;50.772;7.730;2023-08-24T08:22:30;5.20;;;2.95;;
67092;SDS011;54011;50.772;7.730;2023-08-24T08:25:01;10.10;;;3.30;;
67092;SDS011;54011;50.772;7.730;2023-08-24T08:27:27;4.43;;;2.30;;
67092;SDS011;54011;50.772;7.730;2023-08-24T08:29:52;8.60;;;2.10;;
67092;SDS011;54011;50.772;7.730;2023-08-24T08:32:18;4.25;;;2.20;;
67092;SDS011;54011;50.772;7.730;2023-08-24T08:34:44;4.90;;;2.05;;
67092;SDS011;54011;50.772;7.730;2023-08-24T08:37:10;6.22;;;2.20;;
67092;SDS011;54011;50.772;7.730;2023-08-24T08:39:36;7.60;;;2.20;;
67092;SDS011;54011;50.772;7.730;2023-08-24T08:42:02;7.07;;;2.33;;
67092;SDS011;54011;50.772;7.730;2023-08-24T08:44:30;7.53;;;2.38;;
67092;SDS011;54011;50.772;7.730;2023-08-24T08:46:59;5.97;;;2.00;;
67092;SDS011;54011;50.772;7.730;2023-08-24T08:49:26;7.40;;;2.08;;
67092;SDS011;54011;50.772;7.730;2023-08-24T08:51:55;5.53;;;1.83;;
67092;SDS011;54011;50.772;7.730;2023-08-24T08:54:21;8.30;;;2.00;;
67092;SDS011;54011;50.772;7.730;2023-08-24T08:56:48;5.03;;;1.95;;
67092;SDS011;54011;50.772;7.730;2023-08-24T08:59:20;6.43;;;2.03;;
67092;SDS011;54011;50.772;7.730;2023-08-24T09:01:48;4.32;;;2.20;;
67092;SDS011;54011;50.772;7.730;2023-08-24T09:04:16;6.30;;;2.25;;
67092;SDS011;54011;50.772;7.730;2023-08-24T09:06:42;4.05;;;1.90;;
67092;SDS011;54011;50.772;7.730;2023-08-24T09:09:09;4.85;;;2.10;;
67092;SDS011;54011;50.772;7.730;2023-08-24T09:11:35;7.03;;;2.10;;
67092;SDS011;54011;50.772;7.730;2023-08-24T09:14:02;5.63;;;2.00;;
67092;SDS011;54011;50.772;7.730;2023-08-24T09:16:31;4.40;;;1.90;;
67092;SDS011;54011;50.772;7.730;2023-08-24T09:18:59;5.68;;;2.30;;
67092;SDS011;54011;50.772;7.730;2023-08-24T09:21:24;9.27;;;2.20;;
67092;SDS011;54011;50.772;7.730;2023-08-24T09:23:54;5.93;;;2.00;;
67092;SDS011;54011;50.772;7.730;2023-08-24T09:26:27;9.07;;;2.40;;
67092;SDS011;54011;50.772;7.730;2023-08-24T09:29:05;6.03;;;2.15;;
67092;SDS011;54011;50.772;7.730;2023-08-24T09:31:38;5.32;;;1.63;;
67092;SDS011;54011;50.772;7.730;2023-08-24T09:34:05;6.97;;;1.80;;
67092;SDS011;54011;50.772;7.730;2023-08-24T09:36:32;10.38;;;2.35;;
67092;SDS011;54011;50.772;7.730;2023-08-24T09:38:59;5.05;;;2.10;;
67092;SDS011;54011;50.772;7.730;2023-08-24T09:41:41;5.32;;;1.90;;
67092;SDS011;54011;50.772;7.730;2023-08-24T09:44:11;5.20;;;2.00;;
67092;SDS011;54011;50.772;7.730;2023-08-24T09:46:37;4.63;;;1.63;;
67092;SDS011;54011;50.772;7.730;2023-08-24T09:49:04;4.15;;;1.70;;
67092;SDS011;54011;50.772;7.730;2023-08-24T09:51:34;7.47;;;2.00;;
67092;SDS011;54011;50.772;7.730;2023-08-24T09:54:04;5.93;;;1.88;;
67092;SDS011;54011;50.772;7.730;2023-08-24T09:56:38;4.53;;;1.70;;
67092;SDS011;54011;50.772;7.730;2023-08-24T09:59:26;6.13;;;2.30;;
67092;SDS011;54011;50.772;7.730;2023-08-24T10:01:52;4.65;;;2.10;;
67092;SDS011;54011;50.772;7.730;2023-08-24T10:04:23;7.03;;;1.83;;
67092;SDS011;54011;50.772;7.730;2023-08-24T10:06:59;5.10;;;2.05;;
67092;SDS011;54011;50.772;7.730;2023-08-24T10:10:02;3.90;;;1.80;;
67092;SDS011;54011;50.772;7.730;2023-08-24T10:12:29;5.05;;;1.60;;
67092;SDS011;54011;50.772;7.730;2023-08-24T10:15:00;5.57;;;1.88;;
67092;SDS011;54011;50.772;7.730;2023-08-24T10:17:29;4.65;;;1.77;;
67092;SDS011;54011;50.772;7.730;2023-08-24T10:19:58;16.88;;;2.17;;
67092;SDS011;54011;50.772;7.730;2023-08-24T10:22:31;4.28;;;1.80;;
67092;SDS011;54011;50.772;7.730;2023-08-24T10:24:59;3.95;;;1.90;;
67092;SDS011;54011;50.772;7.730;2023-08-24T10:27:26;5.22;;;1.83;;
67092;SDS011;54011;50.772;7.730;2023-08-24T10:29:53;3.92;;;1.90;;
67092;SDS011;54011;50.772;7.730;2023-08-24T10:32:19;6.15;;;2.10;;
67092;SDS011;54011;50.772;7.730;2023-08-24T10:34:47;7.00;;;2.00;;
67092;SDS011;54011;50.772;7.730;2023-08-24T10:37:14;5.88;;;2.00;;
67092;SDS011;54011;50.772;7.730;2023-08-24T10:39:46;5.38;;;2.03;;
67092;SDS011;54011;50.772;7.730;2023-08-24T10:42:12;7.88;;;1.80;;
67092;SDS011;54011;50.772;7.730;2023-08-24T10:44:43;7.13;;;2.10;;
67092;SDS011;54011;50.772;7.730;2023-08-24T10:47:14;8.15;;;2.00;;
67092;SDS011;54011;50.772;7.730;2023-08-24T10:49:41;7.03;;;2.28;;
67092;SDS011;54011;50.772;7.730;2023-08-24T10:52:18;5.07;;;1.90;;
67092;SDS011;54011;50.772;7.730;2023-08-24T10:54:49;8.10;;;2.10;;
67092;SDS011;54011;50.772;7.730;2023-08-24T11:05:15;5.20;;;1.95;;
67092;SDS011;54011;50.772;7.730;2023-08-24T11:07:51;6.22;;;2.10;;
67092;SDS011;54011;50.772;7.730;2023-08-24T11:10:22;8.10;;;1.98;;
67092;SDS011;54011;50.772;7.730;2023-08-24T11:15:43;5.57;;;1.80;;
67092;SDS011;54011;50.772;7.730;2023-08-24T11:20:49;4.18;;;1.80;;
67092;SDS011;54011;50.772;7.730;2023-08-24T11:23:30;5.60;;;2.10;;
67092;SDS011;54011;50.772;7.730;2023-08-24T11:25:57;5.63;;;1.98;;
67092;SDS011;54011;50.772;7.730;2023-08-24T11:28:28;4.22;;;1.85;;
67092;SDS011;54011;50.772;7.730;2023-08-24T11:30:56;7.72;;;1.90;;
67092;SDS011;54011;50.772;7.730;2023-08-24T11:35:57;4.43;;;1.90;;
67092;SDS011;54011;50.772;7.730;2023-08-24T11:38:24;5.40;;;2.05;;
67092;SDS011;54011;50.772;7.730;2023-08-24T11:40:50;5.03;;;1.95;;
67092;SDS011;54011;50.772;7.730;2023-08-24T11:43:25;5.85;;;2.00;;
67092;SDS011;54011;50.772;7.730;2023-08-24T11:45:54;4.90;;;1.83;;
67092;SDS011;54011;50.772;7.730;2023-08-24T11:48:26;5.25;;;2.10;;
67092;SDS011;54011;50.772;7.730;2023-08-24T11:50:54;5.20;;;1.83;;
67092;SDS011;54011;50.772;7.730;2023-08-24T11:53:21;6.38;;;1.83;;
67092;SDS011;54011;50.772;7.730;2023-08-24T11:55:48;5.10;;;1.70;;
67092;SDS011;54011;50.772;7.730;2023-08-24T11:58:16;9.18;;;1.90;;
67092;SDS011;54011;50.772;7.730;2023-08-24T12:00:43;6.50;;;1.90;;
67092;SDS011;54011;50.772;7.730;2023-08-24T12:03:09;6.20;;;1.83;;
67092;SDS011;54011;50.772;7.730;2023-08-24T12:05:40;7.57;;;1.95;;
67092;SDS011;54011;50.772;7.730;2023-08-24T12:08:14;6.00;;;1.70;;
67092;SDS011;54011;50.772;7.730;2023-08-24T12:10:43;4.20;;;1.88;;
67092;SDS011;54011;50.772;7.730;2023-08-24T12:13:11;5.00;;;2.10;;
67092;SDS011;54011;50.772;7.730;2023-08-24T12:15:38;4.72;;;1.85;;
67092;SDS011;54011;50.772;7.730;2023-08-24T12:18:09;5.45;;;1.95;;
67092;SDS011;54011;50.772;7.730;2023-08-24T12:20:37;4.90;;;2.10;;
67092;SDS011;54011;50.772;7.730;2023-08-24T12:23:04;6.63;;;2.05;;
67092;SDS011;54011;50.772;7.730;2023-08-24T12:25:31;6.53;;;2.20;;
67092;SDS011;54011;50.772;7.730;2023-08-24T12:28:11;4.43;;;1.77;;
67092;SDS011;54011;50.772;7.730;2023-08-24T12:30:47;6.72;;;1.90;;
67092;SDS011;54011;50.772;7.730;2023-08-24T12:33:36;5.20;;;1.98;;
67092;SDS011;54011;50.772;7.730;2023-08-24T12:36:02;6.40;;;1.95;;
67092;SDS011;54011;50.772;7.730;2023-08-24T12:38:29;4.45;;;1.90;;
67092;SDS011;54011;50.772;7.730;2023-08-24T12:40:55;4.65;;;2.05;;
67092;SDS011;54011;50.772;7.730;2023-08-24T12:43:21;5.63;;;2.22;;
67092;SDS011;54011;50.772;7.730;2023-08-24T12:45:47;6.38;;;1.90;;
67092;SDS011;54011;50.772;7.730;2023-08-24T12:48:14;4.82;;;1.90;;
67092;SDS011;54011;50.772;7.730;2023-08-24T12:51:10;6.10;;;2.00;;
67092;SDS011;54011;50.772;7.730;2023-08-24T12:53:36;5.15;;;2.00;;
67092;SDS011;54011;50.772;7.730;2023-08-24T12:56:02;5.13;;;2.15;;
67092;SDS011;54011;50.772;7.730;2023-08-24T12:58:37;7.95;;;2.38;;
67092;SDS011;54011;50.772;7.730;2023-08-24T13:01:04;6.60;;;2.40;;
67092;SDS011;54011;50.772;7.730;2023-08-24T13:03:29;6.70;;;2.17;;
67092;SDS011;54011;50.772;7.730;2023-08-24T13:05:57;4.57;;;1.98;;
67092;SDS011;54011;50.772;7.730;2023-08-24T13:10:53;8.07;;;2.15;;
67092;SDS011;54011;50.772;7.730;2023-08-24T13:13:19;10.02;;;2.20;;
67092;SDS011;54011;50.772;7.730;2023-08-24T13:15:48;7.57;;;2.40;;
67092;SDS011;54011;50.772;7.730;2023-08-24T13:18:16;7.30;;;2.43;;
67092;SDS011;54011;50.772;7.730;2023-08-24T13:20:42;6.57;;;2.13;;
67092;SDS011;54011;50.772;7.730;2023-08-24T13:23:10;5.60;;;2.20;;
67092;SDS011;54011;50.772;7.730;2023-08-24T13:25:37;7.00;;;2.03;;
67092;SDS011;54011;50.772;7.730;2023-08-24T13:28:05;10.30;;;2.10;;
67092;SDS011;54011;50.772;7.730;2023-08-24T13:30:32;5.93;;;2.15;;
67092;SDS011;54011;50.772;7.730;2023-08-24T13:33:02;6.72;;;2.20;;
67092;SDS011;54011;50.772;7.730;2023-08-24T13:35:30;7.38;;;2.17;;
67092;SDS011;54011;50.772;7.730;2023-08-24T13:37:56;6.05;;;2.50;;
67092;SDS011;54011;50.772;7.730;2023-08-24T13:40:22;6.97;;;2.50;;
67092;SDS011;54011;50.772;7.730;2023-08-24T13:42:47;6.03;;;2.17;;
67092;SDS011;54011;50.772;7.730;2023-08-24T13:45:13;8.43;;;2.10;;
67092;SDS011;54011;50.772;7.730;2023-08-24T13:47:40;6.38;;;2.00;;
67092;SDS011;54011;50.772;7.730;2023-08-24T13:50:06;4.32;;;2.00;;
67092;SDS011;54011;50.772;7.730;2023-08-24T13:52:34;7.30;;;2.05;;
67092;SDS011;54011;50.772;7.730;2023-08-24T13:55:00;4.07;;;1.98;;
67092;SDS011;54011;50.772;7.730;2023-08-24T13:57:29;5.65;;;2.00;;
67092;SDS011;54011;50.772;7.730;2023-08-24T13:59:56;6.97;;;2.42;;
67092;SDS011;54011;50.772;7.730;2023-08-24T14:02:22;5.10;;;2.33;;
67092;SDS011;54011;50.772;7.730;2023-08-24T14:04:48;7.45;;;2.28;;
67092;SDS011;54011;50.772;7.730;2023-08-24T14:07:14;7.90;;;2.50;;
67092;SDS011;54011;50.772;7.730;2023-08-24T14:09:40;4.88;;;2.30;;
67092;SDS011;54011;50.772;7.730;2023-08-24T14:12:06;8.73;;;2.40;;
67092;SDS011;54011;50.772;7.730;2023-08-24T14:14:32;5.80;;;2.38;;
67092;SDS011;54011;50.772;7.730;2023-08-24T14:16:59;8.48;;;2.35;;
67092;SDS011;54011;50.772;7.730;2023-08-24T14:19:25;9.30;;;2.30;;
67092;SDS011;54011;50.772;7.730;2023-08-24T14:21:53;5.88;;;2.50;;
67092;SDS011;54011;50.772;7.730;2023-08-24T14:24:18;6.78;;;2.30;;
67092;SDS011;54011;50.772;7.730;2023-08-24T14:26:50;7.18;;;2.60;;
67092;SDS011;54011;50.772;7.730;2023-08-24T14:29:16;7.10;;;2.65;;
67092;SDS011;54011;50.772;7.730;2023-08-24T14:31:42;6.53;;;2.42;;
67092;SDS011;54011;50.772;7.730;2023-08-24T14:34:12;7.55;;;2.47;;
67092;SDS011;54011;50.772;7.730;2023-08-24T14:36:38;6.97;;;2.55;;
67092;SDS011;54011;50.772;7.730;2023-08-24T14:39:04;8.35;;;2.30;;
67092;SDS011;54011;50.772;7.730;2023-08-24T14:41:30;7.95;;;2.30;;
67092;SDS011;54011;50.772;7.730;2023-08-24T14:43:56;7.60;;;2.55;;
67092;SDS011;54011;50.772;7.730;2023-08-24T14:46:21;8.68;;;2.50;;
67092;SDS011;54011;50.772;7.730;2023-08-24T14:48:49;5.65;;;2.40;;
67092;SDS011;54011;50.772;7.730;2023-08-24T14:51:18;6.10;;;2.50;;
67092;SDS011;54011;50.772;7.730;2023-08-24T14:53:44;5.88;;;2.55;;
67092;SDS011;54011;50.772;7.730;2023-08-24T14:56:10;7.25;;;2.50;;
67092;SDS011;54011;50.772;7.730;2023-08-24T14:58:36;6.88;;;2.20;;
67092;SDS011;54011;50.772;7.730;2023-08-24T15:01:02;7.00;;;2.45;;
67092;SDS011;54011;50.772;7.730;2023-08-24T15:03:27;6.10;;;2.30;;
67092;SDS011;54011;50.772;7.730;2023-08-24T15:05:58;5.07;;;2.40;;
67092;SDS011;54011;50.772;7.730;2023-08-24T15:08:25;6.47;;;2.72;;
67092;SDS011;54011;50.772;7.730;2023-08-24T15:10:57;8.93;;;2.75;;
67092;SDS011;54011;50.772;7.730;2023-08-24T15:13:25;5.18;;;2.47;;